Time;durP1;ratioP1;P1;durP2;ratioP2;P2;SDS_P1;SDS_P2;PMS_P1;PMS_P2;Temp;Humidity;BMP_temperature;BMP_pressure;BME280_temperature;BME280_humidity;BME280_pressure;Samples;Min_cycle;Max_cycle;Signal;HPM_P1;HPM_P2
2023/01/24 00:01:29;;;;;;;;;4.40;4.40;;;;;7.98;57.68;100482.69;5051016;28;8951;-79
2023/01/24 00:03:58;;;;;;;;;7.00;4.60;;;;;7.89;57.80;100487.63;5050903;28;8858;-78
2023/01/24 00:06:27;;;;;;;;;5.40;4.80;;;;;7.71;58.02;100498.44;5067277;28;8854;-78
2023/01/24 00:08:56;;;;;;;;;4.40;3.60;;;;;7.65;58.91;100507.75;5051781;28;8924;-80
2023/01/24 00:11:24;;;;;;;;;8.00;5.20;;;;;7.92;58.09;100494.63;5050470;28;8912;-79
2023/01/24 00:13:53;;;;;;;;;5.00;4.40;;;;;7.88;57.41;100485.00;5067602;28;8850;-77
2023/01/24 00:16:22;;;;;;;;;4.20;3.20;;;;;7.95;57.19;100486.91;5051049;28;8854;-78
2023/01/24 00:18:52;;;;;;;;;4.00;4.00;;;;;7.76;58.48;100496.81;5051315;28;8881;-80
2023/01/24 00:21:23;;;;;;;;;2.80;2.80;;;;;7.92;57.71;100495.50;5067724;28;8931;-80
2023/01/24 00:23:55;;;;;;;;;2.80;2.80;;;;;7.67;58.15;100503.50;5050948;28;9568;-79
2023/01/24 00:26:25;;;;;;;;;4.40;2.60;;;;;7.85;57.86;100497.91;5107982;28;8976;-79
2023/01/24 00:28:54;;;;;;;;;5.20;4.20;;;;;7.92;57.45;100494.63;5073907;28;8880;-79
2023/01/24 00:31:24;;;;;;;;;5.60;3.60;;;;;7.98;56.63;100490.47;5130484;27;8858;-79
2023/01/24 00:33:57;;;;;;;;;0.80;0.80;;;;;7.63;58.47;100499.94;5129561;27;8842;-79
2023/01/24 00:36:25;;;;;;;;;4.80;2.00;;;;;7.80;57.77;100509.03;5077318;27;8905;-78
2023/01/24 00:38:54;;;;;;;;;2.00;2.00;;;;;7.83;56.57;100503.06;5112032;27;8835;-77
2023/01/24 00:41:27;;;;;;;;;2.00;2.00;;;;;7.67;56.97;100506.97;5112157;27;8946;-79
2023/01/24 00:43:56;;;;;;;;;1.00;1.00;;;;;7.59;57.06;100521.47;5107170;28;8882;-78
2023/01/24 00:46:25;;;;;;;;;4.00;2.00;;;;;7.45;57.71;100523.69;5107406;28;8886;-78
2023/01/24 00:48:55;;;;;;;;;2.40;2.40;;;;;7.60;56.92;100521.50;5089352;28;9009;-78
2023/01/24 00:51:24;;;;;;;;;5.00;4.60;;;;;7.75;56.41;100523.63;5089964;28;8990;-77
2023/01/24 00:53:53;;;;;;;;;5.00;4.40;;;;;7.76;57.11;100530.56;5107267;28;8969;-77
2023/01/24 00:56:22;;;;;;;;;5.40;4.60;;;;;7.63;57.42;100533.69;5090360;28;8960;-80
2023/01/24 00:58:50;;;;;;;;;2.00;2.00;;;;;7.71;56.67;100534.78;5080800;28;8846;-78
2023/01/24 01:01:19;;;;;;;;;2.00;2.00;;;;;7.72;56.46;100533.94;5086623;28;8865;-79
2023/01/24 01:03:48;;;;;;;;;5.00;5.00;;;;;7.68;56.98;100546.78;5086434;28;8854;-78
2023/01/24 01:06:18;;;;;;;;;7.60;5.80;;;;;7.83;56.67;100542.00;5069824;28;9798;-78
2023/01/24 01:08:47;;;;;;;;;3.60;3.60;;;;;7.96;56.31;100548.41;5069653;28;8819;-78
2023/01/24 01:11:16;;;;;;;;;4.00;4.00;;;;;7.73;56.34;100543.50;5069674;28;8855;-77
2023/01/24 01:13:47;;;;;;;;;4.20;4.20;;;;;8.09;55.26;100534.00;5053150;28;8839;-81
2023/01/24 01:16:19;;;;;;;;;4.00;4.00;;;;;7.87;56.30;100540.38;5060307;28;8833;-79
2023/01/24 01:18:50;;;;;;;;;5.40;4.00;;;;;7.77;56.53;100534.94;5073009;28;8879;-78
2023/01/24 01:21:22;;;;;;;;;4.60;4.00;;;;;7.76;56.42;100535.75;5084911;27;8846;-79
2023/01/24 01:23:51;;;;;;;;;3.60;3.60;;;;;7.94;56.16;100537.09;5128905;27;8854;-79
2023/01/24 01:26:21;;;;;;;;;5.80;4.00;;;;;7.77;56.57;100544.47;5130124;27;8858;-78
2023/01/24 01:28:50;;;;;;;;;6.00;6.00;;;;;7.65;56.64;100550.16;5128757;27;8826;-77
2023/01/24 01:31:20;;;;;;;;;4.00;4.00;;;;;7.71;56.34;100559.84;5111586;27;8950;-80
2023/01/24 01:33:49;;;;;;;;;2.40;2.40;;;;;7.87;55.91;100566.34;5133274;27;8846;-76
2023/01/24 01:36:17;;;;;;;;;4.40;4.00;;;;;7.65;56.58;100565.75;5124409;27;8845;-77
2023/01/24 01:38:48;;;;;;;;;4.00;4.00;;;;;7.81;55.81;100546.28;5069218;28;8846;-79
2023/01/24 01:41:16;;;;;;;;;2.40;2.40;;;;;7.93;55.17;100554.38;5069091;28;8874;-78
2023/01/24 01:46:31;;;;;;;;;5.40;5.40;;;;;7.95;55.38;100550.13;5068680;28;9820;-80
2023/01/24 01:49:03;;;;;;;;;2.80;1.60;;;;;7.83;56.19;100544.63;5020051;28;8862;-77
2023/01/24 01:51:37;;;;;;;;;5.00;5.00;;;;;7.63;56.82;100558.75;5068768;28;8910;-79
2023/01/24 01:54:13;;;;;;;;;3.60;2.80;;;;;7.58;56.65;100553.44;5052144;28;8857;-78
2023/01/24 01:56:47;;;;;;;;;4.60;4.60;;;;;7.77;55.89;100552.25;5069014;28;8880;-79
2023/01/24 01:59:20;;;;;;;;;4.80;4.00;;;;;7.94;55.76;100553.56;5069192;28;8827;-80
2023/01/24 02:01:51;;;;;;;;;5.00;4.00;;;;;7.89;56.34;100552.56;5068461;28;9768;-78
2023/01/24 02:04:25;;;;;;;;;3.40;2.00;;;;;8.11;55.77;100560.91;5036394;28;8947;-78
2023/01/24 02:07:00;;;;;;;;;1.00;1.00;;;;;7.84;55.81;100550.69;5068909;28;9685;-79
2023/01/24 02:09:35;;;;;;;;;5.00;5.00;;;;;7.66;56.64;100558.84;5062782;28;8851;-78
2023/01/24 02:12:08;;;;;;;;;2.00;2.00;;;;;7.59;57.15;100565.59;5069407;28;8883;-79
2023/01/24 02:17:25;;;;;;;;;3.20;3.20;;;;;7.79;56.29;100555.75;5086845;28;8985;-78
2023/01/24 02:20:03;;;;;;;;;2.40;2.40;;;;;7.47;57.37;100557.47;5087470;28;8886;-79
2023/01/24 02:22:43;;;;;;;;;4.80;2.80;;;;;7.58;56.78;100556.03;5104015;28;8962;-80
2023/01/24 02:25:22;;;;;;;;;2.80;2.80;;;;;7.46;57.33;100547.91;5119014;28;8943;-80
2023/01/24 02:27:53;;;;;;;;;2.40;2.40;;;;;7.41;57.49;100558.19;5107409;28;8849;-77
2023/01/24 02:30:21;;;;;;;;;4.00;4.00;;;;;7.67;56.98;100555.41;5107377;28;8864;-79
2023/01/24 02:32:50;;;;;;;;;2.00;2.00;;;;;7.44;57.58;100559.97;5068575;28;8912;-78
2023/01/24 02:35:27;;;;;;;;;4.40;4.40;;;;;7.76;56.91;100556.53;5068837;28;9669;-80
2023/01/24 02:38:00;;;;;;;;;4.00;1.40;;;;;7.41;57.64;100568.56;5085602;28;8900;-78
2023/01/24 02:40:30;;;;;;;;;1.00;1.00;;;;;7.56;56.71;100568.97;5065312;28;8872;-78
2023/01/24 02:43:05;;;;;;;;;2.00;1.60;;;;;7.67;57.01;100573.59;5032291;28;9690;-77
2023/01/24 02:45:36;;;;;;;;;4.60;2.80;;;;;7.94;55.89;100563.97;5048652;28;8943;-77
2023/01/24 02:48:05;;;;;;;;;2.00;1.20;;;;;7.80;56.40;100565.28;5048475;28;8993;-79
2023/01/24 02:53:29;;;;;;;;;1.60;1.40;;;;;8.13;56.12;100561.84;5065565;28;8941;-78
2023/01/24 02:53:30;;;;;;;;;2.00;2.00;;;;;7.81;55.36;100559.28;5078312;28;8873;-77
2023/01/24 02:58:50;;;;;;;;;4.40;2.00;;;;;7.68;56.20;100560.66;5051703;28;8863;-78
2023/01/24 03:01:21;;;;;;;;;1.20;1.00;;;;;7.78;56.26;100562.66;5035377;28;8847;-78
2023/01/24 03:03:55;;;;;;;;;1.80;1.00;;;;;7.86;56.45;100567.16;5069645;27;8854;-81
2023/01/24 03:06:24;;;;;;;;;1.00;1.00;;;;;7.95;56.38;100567.41;5115592;27;8833;-80
2023/01/24 03:08:54;;;;;;;;;3.20;1.00;;;;;7.95;55.01;100557.91;5112374;27;8837;-79
2023/01/24 03:11:36;;;;;;;;;1.40;0.00;;;;;8.21;54.41;100560.31;5112364;27;9590;-79
2023/01/24 03:36:31;;;;;;;;;1.80;1.00;;;;;8.29;54.01;100563.09;5113785;27;8846;-77
2023/01/24 03:41:49;;;;;;;;;1.00;1.00;;;;;8.32;54.28;100573.59;5113302;27;9612;-79
2023/01/24 03:44:18;;;;;;;;;2.00;1.00;;;;;8.46;53.17;100569.63;5130871;27;8827;-78
2023/01/24 03:46:48;;;;;;;;;0.40;0.40;;;;;8.25;54.13;100582.06;5127782;27;8858;-79
2023/01/24 03:49:17;;;;;;;;;0.80;0.80;;;;;8.20;53.90;100577.63;5110492;28;8868;-81
2023/01/24 03:54:33;;;;;;;;;0.60;0.60;;;;;8.03;54.24;100581.47;5112108;28;8876;-79
2023/01/24 03:57:04;;;;;;;;;2.00;2.00;;;;;8.29;53.53;100583.88;5093795;28;8999;-79
2023/01/24 03:59:33;;;;;;;;;2.00;1.00;;;;;8.19;52.88;100575.84;5060413;28;8933;-78
2023/01/24 04:02:04;;;;;;;;;0.00;0.00;;;;;8.03;54.00;100571.09;5109733;28;8873;-77
2023/01/24 04:07:20;;;;;;;;;1.00;1.00;;;;;7.93;53.94;100576.91;5109636;28;8849;-78
2023/01/24 04:10:06;;;;;;;;;0.60;0.60;;;;;7.81;53.51;100573.13;5077262;28;8880;-79
2023/01/24 04:12:40;;;;;;;;;1.00;1.00;;;;;8.00;53.45;100568.44;5109172;28;8869;-79
2023/01/24 04:15:14;;;;;;;;;1.00;1.00;;;;;7.70;53.32;100565.88;5110602;28;8837;-79
2023/01/24 04:17:46;;;;;;;;;1.20;1.20;;;;;7.71;53.76;100570.22;5109239;28;8883;-78
2023/01/24 04:20:15;;;;;;;;;11.20;11.20;;;;;7.53;54.02;100566.28;5092773;28;9586;-78
2023/01/24 04:22:44;;;;;;;;;0.80;0.80;;;;;7.59;54.19;100571.66;5109194;28;8845;-78
2023/01/24 04:25:14;;;;;;;;;0.60;0.60;;;;;7.45;53.82;100573.00;5109051;28;8949;-80
2023/01/24 04:27:46;;;;;;;;;1.00;1.00;;;;;7.65;53.16;100573.53;5058762;28;8957;-79
2023/01/24 04:30:21;;;;;;;;;0.00;0.00;;;;;7.53;53.58;100576.66;5108854;28;8848;-77
2023/01/24 04:32:55;;;;;;;;;0.00;0.00;;;;;7.73;53.20;100569.44;5059033;28;8892;-78
2023/01/24 04:35:28;;;;;;;;;0.80;0.80;;;;;7.68;53.52;100581.41;5108468;28;8849;-79
2023/01/24 04:37:59;;;;;;;;;3.80;2.40;;;;;7.76;53.22;100582.50;5108704;28;8925;-77
2023/01/24 04:40:47;;;;;;;;;2.60;2.60;;;;;7.86;53.26;100578.44;5109787;28;8837;-76
2023/01/24 04:43:16;;;;;;;;;1.60;0.20;;;;;7.85;52.90;100581.88;5108788;28;8921;-77
2023/01/24 04:45:49;;;;;;;;;0.60;0.60;;;;;7.76;52.33;100592.00;5091776;28;8837;-79
2023/01/24 04:48:22;;;;;;;;;1.60;1.00;;;;;7.75;53.07;100582.44;5058581;28;8938;-78
2023/01/24 04:50:52;;;;;;;;;1.60;0.20;;;;;7.80;51.90;100580.88;5109849;28;8868;-81
2023/01/24 04:53:20;;;;;;;;;0.00;0.00;;;;;7.65;52.93;100591.69;5108461;28;8937;-78
2023/01/24 04:55:52;;;;;;;;;9.00;4.60;;;;;7.73;52.20;100587.63;5108240;28;8845;-79
2023/01/24 04:58:20;;;;;;;;;1.00;1.00;;;;;7.71;52.07;100584.13;5109869;28;8833;-77
2023/01/24 05:00:50;;;;;;;;;1.00;1.00;;;;;7.78;52.72;100596.41;5108156;28;8963;-80
2023/01/24 05:03:19;;;;;;;;;0.00;0.00;;;;;7.74;51.75;100591.97;5091227;28;8891;-79
2023/01/24 05:05:51;;;;;;;;;1.00;1.00;;;;;7.52;52.27;100595.66;5078570;27;9102;-78
2023/01/24 05:08:20;;;;;;;;;1.00;1.00;;;;;7.57;52.59;100595.81;5132510;27;8847;-79
2023/01/24 05:10:49;;;;;;;;;0.80;0.80;;;;;7.78;51.58;100600.72;5132351;27;8823;-79
2023/01/24 05:13:19;;;;;;;;;7.60;5.80;;;;;7.56;52.02;100604.41;5132034;27;8859;-79
2023/01/24 05:15:49;;;;;;;;;28.00;25.60;;;;;7.71;52.37;100604.88;5114603;27;8882;-76
2023/01/24 05:18:19;;;;;;;;;2.40;1.00;;;;;7.55;52.15;100603.53;5131889;27;8835;-80
2023/01/24 05:20:48;;;;;;;;;1.60;1.00;;;;;7.63;51.98;100614.16;5097135;27;8839;-78
2023/01/24 05:23:18;;;;;;;;;1.00;0.00;;;;;7.48;52.10;100611.13;5131963;27;8854;-79
2023/01/24 05:25:50;;;;;;;;;0.40;0.40;;;;;7.48;52.30;100616.31;5131741;27;8843;-77
2023/01/24 05:28:18;;;;;;;;;0.00;0.00;;;;;7.54;52.43;100624.25;5131479;27;8965;-79
2023/01/24 05:30:49;;;;;;;;;0.00;0.00;;;;;7.25;53.29;100620.81;5114673;27;8847;-79
2023/01/24 05:33:22;;;;;;;;;1.00;1.00;;;;;7.41;52.23;100628.22;5081721;27;8878;-80
2023/01/24 05:35:58;;;;;;;;;1.40;1.40;;;;;7.45;53.26;100623.97;5114213;27;8956;-79
2023/01/24 05:38:28;;;;;;;;;1.00;1.00;;;;;7.44;52.46;100623.13;5131169;27;9595;-79
2023/01/24 05:41:00;;;;;;;;;1.00;0.00;;;;;7.47;52.40;100619.75;5131600;27;8838;-79
2023/01/24 05:43:29;;;;;;;;;0.80;0.80;;;;;7.32;52.46;100623.63;5114345;27;8943;-80
2023/01/24 05:46:00;;;;;;;;;0.80;0.60;;;;;7.17;53.30;100624.06;5150319;27;9612;-79
2023/01/24 05:48:34;;;;;;;;;1.00;1.00;;;;;7.39;53.27;100633.38;5080739;27;8855;-78
2023/01/24 05:51:05;;;;;;;;;2.00;2.00;;;;;7.26;53.07;100628.66;5131460;27;8869;-78
2023/01/24 05:53:37;;;;;;;;;1.00;1.00;;;;;7.32;52.62;100634.00;5131012;27;8965;-79
2023/01/24 05:56:12;;;;;;;;;1.00;1.00;;;;;7.35;52.37;100641.00;5105831;28;8840;-78
2023/01/24 05:58:42;;;;;;;;;2.00;2.00;;;;;7.23;52.84;100641.53;5071589;28;8952;-78
2023/01/24 06:01:16;;;;;;;;;1.00;1.00;;;;;7.18;53.04;100631.00;5105747;28;8867;-80
2023/01/24 06:03:47;;;;;;;;;1.40;1.40;;;;;6.99;53.68;100647.72;5085021;28;9004;-78
2023/01/24 06:06:20;;;;;;;;;1.00;1.00;;;;;7.14;53.30;100649.00;5069574;28;8861;-79
2023/01/24 06:08:51;;;;;;;;;2.40;2.40;;;;;6.99;53.37;100650.31;5085817;28;8873;-76
2023/01/24 06:11:24;;;;;;;;;3.60;2.00;;;;;7.10;53.49;100652.34;5068717;28;8826;-81
2023/01/24 06:14:04;;;;;;;;;2.80;2.80;;;;;7.29;52.71;100652.06;5068150;28;8887;-80
2023/01/24 06:16:33;;;;;;;;;4.00;4.00;;;;;7.21;53.00;100651.84;5068908;28;9005;-79
2023/01/24 06:19:03;;;;;;;;;5.60;5.60;;;;;7.20;52.88;100660.47;5020717;28;8873;-80
2023/01/24 06:21:44;;;;;;;;;3.60;3.40;;;;;7.23;52.56;100655.34;5088853;28;8943;-77
2023/01/24 06:24:20;;;;;;;;;4.60;4.00;;;;;7.00;53.58;100667.63;5088570;28;9006;-79
2023/01/24 06:27:04;;;;;;;;;9.60;8.60;;;;;7.06;52.61;100666.06;5023789;28;9001;-79
2023/01/24 06:29:33;;;;;;;;;14.00;12.00;;;;;7.08;53.45;100674.75;5085731;28;9174;-80
2023/01/24 06:32:18;;;;;;;;;5.00;5.00;;;;;7.10;53.31;100678.28;5035826;28;8857;-80
2023/01/24 06:35:07;;;;;;;;;8.80;7.00;;;;;7.15;52.34;100681.91;5071726;28;8852;-81
2023/01/24 06:37:43;;;;;;;;;7.40;7.40;;;;;7.05;53.35;100682.44;5106172;28;8916;-80
2023/01/24 06:40:16;;;;;;;;;8.60;7.80;;;;;7.09;53.11;100690.38;5105760;28;8852;-79
2023/01/24 06:42:46;;;;;;;;;6.40;5.40;;;;;6.86;53.69;100699.97;5130250;27;8855;-80
2023/01/24 06:45:15;;;;;;;;;4.40;4.00;;;;;6.77;53.82;100705.75;5117052;27;8869;-81
2023/01/24 06:47:44;;;;;;;;;4.20;4.00;;;;;7.00;53.49;100705.63;5078138;27;9934;-78
2023/01/24 06:50:16;;;;;;;;;2.00;2.00;;;;;7.11;53.04;100699.09;5132771;27;8841;-78
2023/01/24 06:52:46;;;;;;;;;5.20;4.20;;;;;7.12;52.75;100712.94;5114708;27;8868;-79
2023/01/24 06:55:16;;;;;;;;;4.60;4.00;;;;;6.86;53.49;100710.34;5132177;27;8873;-80
2023/01/24 06:57:47;;;;;;;;;2.00;2.00;;;;;7.10;53.39;100702.50;5132578;27;8865;-81
2023/01/24 07:00:17;;;;;;;;;4.60;3.20;;;;;7.24;52.72;100702.97;5114600;27;8840;-82
2023/01/24 07:02:45;;;;;;;;;5.40;4.00;;;;;7.17;52.72;100707.06;5132865;27;8845;-82
2023/01/24 07:05:14;;;;;;;;;2.40;2.40;;;;;7.20;52.29;100708.84;5114051;27;8983;-80
2023/01/24 07:07:43;;;;;;;;;2.40;2.00;;;;;7.18;52.00;100714.03;5125228;27;8858;-78
2023/01/24 07:10:12;;;;;;;;;4.60;4.20;;;;;6.98;53.44;100713.38;5153057;27;9575;-81
2023/01/24 07:12:44;;;;;;;;;3.20;3.20;;;;;7.02;52.53;100710.03;5153509;27;8827;-79
2023/01/24 07:15:14;;;;;;;;;4.00;4.00;;;;;6.99;53.17;100711.66;5152976;27;8855;-80
2023/01/24 07:17:43;;;;;;;;;4.20;4.20;;;;;7.14;52.64;100706.06;5117222;27;8835;-78
2023/01/24 07:20:13;;;;;;;;;8.00;5.20;;;;;7.01;52.54;100715.16;5152975;27;8855;-79
2023/01/24 07:22:44;;;;;;;;;5.00;3.80;;;;;6.79;53.38;100714.47;5134135;27;8843;-81
2023/01/24 07:25:15;;;;;;;;;4.60;4.60;;;;;6.96;52.99;100725.41;5133402;27;8849;-79
2023/01/24 07:27:46;;;;;;;;;5.40;5.00;;;;;7.23;52.61;100730.59;5096957;27;8849;-78
2023/01/24 07:30:15;;;;;;;;;6.20;4.40;;;;;7.28;52.07;100728.16;5096929;27;8861;-81
2023/01/24 07:32:45;;;;;;;;;8.60;6.40;;;;;7.21;52.69;100732.25;5144356;27;9602;-79
2023/01/24 07:35:13;;;;;;;;;6.00;5.00;;;;;7.21;51.82;100734.84;5152185;27;8855;-78
2023/01/24 07:37:42;;;;;;;;;18.00;15.20;;;;;7.22;52.27;100736.63;5116958;27;8819;-78
2023/01/24 07:40:12;;;;;;;;;8.00;8.00;;;;;6.95;53.13;100735.72;5151987;27;8850;-79
2023/01/24 07:42:41;;;;;;;;;8.20;8.20;;;;;6.98;52.38;100738.44;5133884;27;8855;-78
2023/01/24 07:45:11;;;;;;;;;8.00;8.00;;;;;6.98;53.22;100741.88;5134553;27;8859;-80
2023/01/24 07:47:41;;;;;;;;;7.20;7.20;;;;;7.11;52.63;100734.53;5116949;27;8835;-77
2023/01/24 07:50:11;;;;;;;;;8.20;7.40;;;;;6.99;53.37;100748.84;5152402;27;8872;-78
2023/01/24 07:52:39;;;;;;;;;10.60;7.60;;;;;7.08;53.07;100737.00;5082183;27;8888;-80
2023/01/24 07:55:09;;;;;;;;;8.40;7.40;;;;;6.81;53.79;100756.00;5151937;27;8855;-81
2023/01/24 07:57:38;;;;;;;;;9.40;7.80;;;;;6.83;52.95;100762.13;5151419;27;9001;-79
2023/01/24 08:00:08;;;;;;;;;5.80;5.20;;;;;6.74;53.16;100754.91;5133546;27;8835;-80
2023/01/24 08:02:41;;;;;;;;;7.60;5.00;;;;;6.62;54.16;100751.91;5133238;27;8855;-80
2023/01/24 08:05:11;;;;;;;;;5.00;5.00;;;;;6.82;53.83;100765.53;5151591;27;8891;-79
2023/01/24 08:07:39;;;;;;;;;10.20;6.40;;;;;6.74;53.13;100754.91;5132738;27;8839;-80
2023/01/24 08:10:11;;;;;;;;;5.60;5.60;;;;;6.66;53.80;100766.72;5151894;27;8882;-80
2023/01/24 08:12:41;;;;;;;;;5.60;5.40;;;;;6.92;52.70;100774.50;5116087;27;8881;-79
2023/01/24 08:15:10;;;;;;;;;7.80;7.80;;;;;7.11;52.84;100773.44;5133648;27;8983;-78
2023/01/24 08:17:41;;;;;;;;;2.00;2.00;;;;;7.31;52.10;100771.47;5152154;27;8835;-78
2023/01/24 08:20:11;;;;;;;;;7.20;6.80;;;;;7.34;51.58;100766.41;5117021;27;8851;-81
2023/01/24 08:22:41;;;;;;;;;5.20;5.20;;;;;7.30;51.22;100772.31;5117400;27;8862;-79
2023/01/24 08:25:24;;;;;;;;;8.80;8.00;;;;;7.20;52.06;100773.72;5133174;27;8855;-79
2023/01/24 08:27:55;;;;;;;;;4.60;4.00;;;;;6.96;52.09;100763.44;5133495;27;8862;-79
2023/01/24 08:30:23;;;;;;;;;4.80;4.80;;;;;7.32;51.69;100771.53;5133078;27;8847;-79
2023/01/24 08:33:05;;;;;;;;;4.20;4.20;;;;;7.17;51.18;100771.03;5107228;28;8816;-77
2023/01/24 08:35:34;;;;;;;;;5.60;3.20;;;;;7.28;51.05;100773.97;5108064;28;8855;-81
2023/01/24 08:38:07;;;;;;;;;5.80;4.20;;;;;7.14;50.63;100776.97;5090834;28;8839;-80
2023/01/24 08:40:35;;;;;;;;;1.80;1.60;;;;;7.15;51.40;100781.34;5090778;28;8985;-80
2023/01/24 08:43:17;;;;;;;;;3.60;3.60;;;;;7.01;51.21;100777.41;5090845;28;8937;-77
2023/01/24 08:45:46;;;;;;;;;4.00;4.00;;;;;6.78;51.75;100769.72;5074303;28;8883;-79
2023/01/24 08:48:16;;;;;;;;;8.60;5.80;;;;;6.76;51.20;100783.47;5090775;28;9010;-77
2023/01/24 08:50:45;;;;;;;;;7.20;5.20;;;;;6.81;51.34;100793.16;5090794;28;8843;-80
2023/01/24 08:53:14;;;;;;;;;3.60;3.00;;;;;6.92;51.75;100777.09;5090390;28;8848;-78
2023/01/24 08:55:43;;;;;;;;;6.00;4.00;;;;;6.98;50.62;100790.28;5090464;28;8843;-79
2023/01/24 08:58:12;;;;;;;;;3.80;3.20;;;;;7.04;50.82;100790.50;5073274;28;8855;-79
2023/01/24 09:00:40;;;;;;;;;8.60;8.40;;;;;7.36;50.83;100791.56;5089911;28;8860;-78
2023/01/24 09:03:10;;;;;;;;;9.60;7.40;;;;;7.34;50.47;100787.16;5094976;27;8848;-78
2023/01/24 09:05:40;;;;;;;;;8.00;6.40;;;;;7.23;51.45;100786.78;5150610;27;8981;-80
2023/01/24 09:08:09;;;;;;;;;8.00;6.60;;;;;7.40;50.78;100792.53;5150756;27;9666;-78
2023/01/24 09:10:39;;;;;;;;;9.80;7.80;;;;;7.18;51.07;100785.75;5131818;27;9109;-80
2023/01/24 09:13:09;;;;;;;;;7.60;7.60;;;;;7.19;51.21;100792.72;5132484;27;8838;-77
2023/01/24 09:15:38;;;;;;;;;7.20;6.40;;;;;7.29;50.37;100778.34;5150692;27;8851;-79
2023/01/24 09:18:07;;;;;;;;;4.80;4.00;;;;;7.26;50.62;100784.31;5114313;27;8839;-79
2023/01/24 09:20:35;;;;;;;;;8.40;7.80;;;;;7.07;51.42;100787.09;5114725;27;8897;-79
2023/01/24 09:23:11;;;;;;;;;5.60;4.60;;;;;7.46;50.50;100791.84;5132464;27;8859;-79
2023/01/24 09:25:40;;;;;;;;;11.80;6.40;;;;;7.66;50.44;100790.78;5133359;27;8843;-78
2023/01/24 09:28:09;;;;;;;;;11.00;5.60;;;;;7.71;49.32;100798.69;5150850;27;8843;-79
2023/01/24 09:30:38;;;;;;;;;5.00;5.00;;;;;7.84;49.08;100789.56;5114339;27;8847;-79
2023/01/24 09:33:07;;;;;;;;;5.00;4.60;;;;;7.66;49.62;100788.19;5150286;27;8858;-79
2023/01/24 09:35:35;;;;;;;;;5.00;5.00;;;;;7.94;49.07;100786.41;5115197;27;8859;-79
2023/01/24 09:38:05;;;;;;;;;6.00;4.60;;;;;7.59;49.82;100797.47;5132026;27;8844;-80
2023/01/24 09:40:45;;;;;;;;;5.00;4.80;;;;;7.61;49.88;100789.75;5097552;27;8973;-79
2023/01/24 09:43:23;;;;;;;;;5.00;4.00;;;;;7.73;49.91;100784.94;5150168;27;10265;-78
2023/01/24 09:46:04;;;;;;;;;6.00;6.00;;;;;7.86;49.34;100787.91;5131422;27;8839;-81
2023/01/24 09:48:34;;;;;;;;;8.00;6.00;;;;;7.98;49.19;100783.97;5131642;27;8826;-79
2023/01/24 09:51:07;;;;;;;;;5.00;5.00;;;;;8.03;48.28;100776.28;5111200;27;8834;-81
2023/01/24 09:53:42;;;;;;;;;5.20;4.60;;;;;7.94;48.75;100784.72;5111190;27;8834;-78
2023/01/24 09:56:26;;;;;;;;;3.20;3.20;;;;;8.15;48.12;100786.19;5110978;27;8837;-79
2023/01/24 09:59:10;;;;;;;;;8.00;6.00;;;;;8.03;48.51;100776.28;5094200;27;8826;-79
2023/01/24 10:01:40;;;;;;;;;5.00;4.00;;;;;7.76;49.18;100787.63;5121605;27;8859;-78
2023/01/24 10:04:16;;;;;;;;;5.00;5.00;;;;;7.91;48.65;100781.16;5131575;27;8857;-80
2023/01/24 10:07:00;;;;;;;;;5.20;5.20;;;;;7.97;49.04;100783.91;5080691;27;8990;-78
2023/01/24 10:09:40;;;;;;;;;3.80;3.80;;;;;7.86;48.82;100783.59;5131322;27;8847;-83
2023/01/24 10:12:23;;;;;;;;;5.00;5.00;;;;;7.76;49.32;100787.63;5150626;27;8947;-78
2023/01/24 10:15:10;;;;;;;;;5.80;5.20;;;;;7.64;48.75;100781.16;5115935;27;8831;-82
2023/01/24 10:17:50;;;;;;;;;6.20;5.00;;;;;7.70;49.16;100781.38;5149409;27;8931;-78
2023/01/24 10:20:50;;;;;;;;;6.20;5.40;;;;;7.86;48.88;100777.53;5131680;27;8874;-79
2023/01/24 10:23:24;;;;;;;;;6.00;6.00;;;;;7.99;47.85;100783.13;5033994;28;8894;-80
2023/01/24 10:25:58;;;;;;;;;5.00;5.00;;;;;8.09;48.50;100773.91;5033746;28;8858;-79
2023/01/24 10:28:33;;;;;;;;;8.60;6.00;;;;;8.35;47.29;100769.44;5049641;28;9754;-79
2023/01/24 10:31:08;;;;;;;;;6.40;6.40;;;;;8.60;46.99;100770.19;5049393;28;8853;-80
2023/01/24 10:33:44;;;;;;;;;6.80;6.00;;;;;8.39;47.14;100760.00;5049395;28;8935;-80
2023/01/24 10:36:18;;;;;;;;;8.60;8.60;;;;;8.26;47.43;100769.19;5015909;28;8858;-80
2023/01/24 10:38:48;;;;;;;;;8.20;8.00;;;;;8.20;48.27;100767.31;5049149;28;8858;-81
2023/01/24 10:41:24;;;;;;;;;6.00;6.00;;;;;8.49;47.57;100758.59;5049061;28;8862;-80
2023/01/24 10:44:01;;;;;;;;;6.00;5.00;;;;;8.16;47.71;100768.03;5033105;28;8947;-82
2023/01/24 10:46:53;;;;;;;;;8.00;8.00;;;;;7.99;48.28;100767.53;5016413;28;8866;-80
2023/01/24 10:49:26;;;;;;;;;5.40;5.40;;;;;8.16;48.25;100769.75;4984764;28;8913;-80
2023/01/24 10:52:14;;;;;;;;;6.00;6.00;;;;;8.13;47.23;100767.97;4983810;28;8866;-78
2023/01/24 10:54:52;;;;;;;;;5.60;5.00;;;;;8.45;47.28;100760.22;5032849;28;8838;-80
2023/01/24 10:57:33;;;;;;;;;7.20;6.00;;;;;8.62;46.95;100760.69;4984184;28;9552;-81
2023/01/24 11:00:34;;;;;;;;;8.00;6.00;;;;;8.77;46.21;100761.09;5079513;27;8876;-79
2023/01/24 11:03:17;;;;;;;;;10.40;9.20;;;;;8.74;46.39;100755.81;5133259;27;9756;-81
2023/01/24 11:05:49;;;;;;;;;8.00;6.00;;;;;8.90;46.24;100741.50;5133512;27;8892;-78
2023/01/24 11:08:21;;;;;;;;;9.80;6.00;;;;;8.63;46.48;100743.38;5133336;27;8868;-80
2023/01/24 11:10:53;;;;;;;;;7.20;4.80;;;;;8.65;46.24;100742.56;5089474;28;8845;-80
2023/01/24 11:13:36;;;;;;;;;5.40;5.00;;;;;8.83;46.07;100749.97;5072841;28;8857;-81
2023/01/24 11:16:21;;;;;;;;;7.40;5.80;;;;;8.90;46.00;100745.78;5055948;28;8858;-81
2023/01/24 11:18:54;;;;;;;;;7.20;6.00;;;;;8.69;46.41;100749.59;5074051;28;8849;-79
2023/01/24 11:21:23;;;;;;;;;8.00;8.00;;;;;8.68;46.67;100736.56;5073369;28;8861;-79
2023/01/24 11:24:01;;;;;;;;;10.00;9.80;;;;;8.84;47.14;100738.72;5072883;28;8884;-78
2023/01/24 11:26:32;;;;;;;;;7.20;6.00;;;;;8.76;47.55;100737.66;5089234;28;8877;-77
2023/01/24 11:29:02;;;;;;;;;8.40;6.40;;;;;8.50;48.30;100737.81;5089130;28;8845;-78
2023/01/24 11:31:37;;;;;;;;;6.00;6.00;;;;;8.56;48.63;100743.22;5073807;28;8923;-80
2023/01/24 11:34:29;;;;;;;;;6.00;6.00;;;;;8.36;49.06;100739.16;5092389;28;9605;-82
2023/01/24 11:37:07;;;;;;;;;6.80;6.40;;;;;8.27;49.44;100736.28;5109296;28;8847;-81
2023/01/24 11:39:47;;;;;;;;;9.80;7.20;;;;;7.95;51.11;100744.91;5092561;28;8839;-78
2023/01/24 11:42:25;;;;;;;;;10.00;9.00;;;;;8.20;50.55;100738.72;5092177;28;8871;-80
2023/01/24 11:45:12;;;;;;;;;7.00;6.80;;;;;8.07;50.67;100739.22;5109268;28;9599;-80
2023/01/24 11:47:53;;;;;;;;;7.80;7.80;;;;;7.94;49.72;100737.97;5095808;27;8972;-81
2023/01/24 11:50:38;;;;;;;;;6.00;5.80;;;;;8.00;50.09;100742.47;5114209;27;8837;-77
2023/01/24 11:53:25;;;;;;;;;6.00;6.00;;;;;7.97;50.88;100739.75;5113745;27;9649;-80
2023/01/24 11:56:06;;;;;;;;;16.00;14.20;;;;;8.12;50.54;100727.22;5132064;27;8875;-79
2023/01/24 11:58:52;;;;;;;;;9.80;9.80;;;;;8.22;49.40;100725.75;5113584;27;8857;-80
2023/01/24 12:01:32;;;;;;;;;11.40;10.20;;;;;7.98;49.42;100733.75;5113662;27;8849;-80
2023/01/24 12:04:36;;;;;;;;;11.40;8.40;;;;;8.02;49.69;100725.19;5113295;27;8841;-79
2023/01/24 12:07:12;;;;;;;;;4.80;4.80;;;;;7.95;49.23;100713.75;5078491;27;8853;-79
2023/01/24 12:09:48;;;;;;;;;12.00;12.00;;;;;8.18;50.00;100718.72;5091560;28;8867;-81
2023/01/24 12:12:23;;;;;;;;;11.80;11.80;;;;;8.29;49.45;100709.50;5091222;28;8859;-81
2023/01/24 12:15:25;;;;;;;;;2.00;2.00;;;;;8.08;49.13;100709.78;5074278;28;8882;-78
2023/01/24 12:18:10;;;;;;;;;17.40;12.00;;;;;8.46;48.51;100709.97;5010995;28;8928;-77
2023/01/24 12:20:57;;;;;;;;;9.20;9.20;;;;;8.47;48.77;100703.97;4994855;28;8965;-79
2023/01/24 12:23:33;;;;;;;;;10.80;10.80;;;;;8.27;48.83;100705.09;4995143;28;8826;-79
2023/01/24 12:26:08;;;;;;;;;16.40;14.60;;;;;8.51;49.20;100697.13;5006991;28;8834;-79
2023/01/24 12:28:45;;;;;;;;;11.60;10.00;;;;;8.56;48.47;100692.91;5050630;28;8964;-79
2023/01/24 12:31:20;;;;;;;;;9.60;8.80;;;;;8.46;48.27;100691.78;5051059;28;8915;-78
2023/01/24 12:33:56;;;;;;;;;10.80;9.40;;;;;8.57;47.62;100698.16;5050657;28;8865;-79
2023/01/24 12:36:36;;;;;;;;;12.20;10.80;;;;;8.00;48.50;100701.78;5051795;28;8983;-80
2023/01/24 12:39:14;;;;;;;;;14.00;11.20;;;;;8.18;48.58;100690.13;5050377;28;8846;-80
2023/01/24 12:41:50;;;;;;;;;11.20;9.80;;;;;7.93;48.90;100688.56;5067081;28;8830;-79
2023/01/24 12:44:31;;;;;;;;;9.00;8.80;;;;;8.31;48.17;100686.16;5069486;28;8985;-79
2023/01/24 12:47:20;;;;;;;;;12.20;10.80;;;;;8.45;48.06;100684.84;5069899;28;8865;-80
2023/01/24 12:50:05;;;;;;;;;10.60;9.20;;;;;8.62;47.97;100689.59;5087622;28;8834;-78